world map with BDH marked

BDH - Airport

This information may not be accurate or current and is not valid for navigation or flight planning. No warranty of fitness for any purpose is made or implied.

flag of Iran

Donate via PayPal

Additional information is available on the NEW Great Circle Mapper

Location
City:  Bandar Lengeh, Iran
ICAO / IATA:OIBL / BDH

Details
Type:Airport (Aerodrome, Airfield)
Latitude:26°31'55"N (26.532000)
Longitude:54°49'29"E (54.824847)
Datum:WGS 1984
Elevation:67 ft (20 m)
Runways:1
Longest:8203 × 148 ft (2500 × 45 m)

Time
Timezone:UTC+3:30 (DST+6:30)
Local Time:

Weather
METAR:OIBL  201800Z 33004KT 8000 SKC 19/13 Q1018
TAF:OIBL  (expired)

Related Locations
Nearby:
Farthest:GMR: 11790 mi / 18975 km
Mangareva [Totegegie], Gambier Islands, PF

Find:

   beyond  
but within

Other Information
Maps:
Links:
Sources:

  


 


Great Circle Mapper   Great Circle Mapper
Great Circle Mapper FAQ   Great Circle Mapper FAQ
  Karl's Home Page
KLSē   KLSē Home
   GC on Facebook
Airlines of the World   Airlines of the World
Donate via PayPal


Copyright © 2004-2014, Karl L. Swartz. All rights reserved.
All trademarks mentioned herein belong to their respective owners.

Please see credits for attribution and copyright information.

Karl Swartz <karl@kls2.com>
  Powered by FreeBSD
Valid HTML 4.01!
Labeled with ICRA
hCard Microformat
Geo Microformat